createdAt,value
2019-05-01T00:00:26.574Z,83.77
2019-05-01T00:01:26.524Z,83.56
2019-05-01T00:02:26.507Z,83.26
2019-05-01T00:03:26.428Z,83.07
2019-05-01T00:04:26.428Z,83.36
2019-05-01T00:05:26.576Z,82.92
2019-05-01T00:06:26.587Z,83.13
2019-05-01T00:07:26.568Z,82.89
2019-05-01T00:08:26.562Z,82.91
2019-05-01T00:09:26.451Z,83.32
2019-05-01T00:10:26.634Z,82.65
2019-05-01T00:11:26.510Z,82.64
2019-05-01T00:12:26.645Z,82.55
2019-05-01T00:13:26.516Z,82.62
2019-05-01T00:14:26.692Z,82.53
2019-05-01T00:15:26.522Z,82.74
2019-05-01T00:16:26.470Z,82.62
2019-05-01T00:17:27.872Z,82.89
2019-05-01T00:18:26.553Z,82.22
2019-05-01T00:19:26.462Z,82.44
2019-05-01T00:20:26.442Z,82.45
2019-05-01T00:21:26.492Z,83.16
2019-05-01T00:22:26.577Z,82.89
2019-05-01T00:23:26.648Z,82.85
2019-05-01T00:24:26.497Z,83.12
2019-05-01T00:25:26.489Z,83.34
2019-05-01T00:26:26.573Z,83.68
2019-05-01T00:27:26.595Z,83.68
2019-05-01T00:28:26.658Z,83.34
2019-05-01T00:29:26.556Z,83.67
2019-05-01T00:30:30.149Z,83.27
2019-05-01T00:31:26.582Z,83.91
2019-05-01T00:32:26.569Z,83.67
2019-05-01T00:33:26.466Z,83.09
2019-05-01T00:34:26.686Z,82.42
2019-05-01T00:35:26.431Z,82.07
2019-05-01T00:36:26.669Z,82.08
2019-05-01T00:37:26.588Z,81.98
2019-05-01T00:38:26.536Z,82.62
2019-05-01T00:39:26.536Z,82.64
2019-05-01T00:40:26.536Z,83.12
2019-05-01T00:41:26.527Z,83.46
2019-05-01T00:42:26.728Z,83.80
2019-05-01T00:43:26.556Z,83.93
2019-05-01T00:44:26.532Z,84.28
2019-05-01T00:45:26.648Z,84.87
2019-05-01T00:46:26.448Z,84.82
2019-05-01T00:47:26.482Z,85.30
2019-05-01T00:48:26.517Z,85.15
2019-05-01T00:49:26.535Z,85.04
2019-05-01T00:50:26.605Z,84.77
2019-05-01T00:51:26.665Z,84.98
2019-05-01T00:52:26.700Z,84.88
2019-05-01T00:53:26.488Z,85.04
2019-05-01T00:54:26.601Z,84.98
2019-05-01T00:55:26.712Z,85.40
2019-05-01T00:56:26.617Z,85.68
2019-05-01T00:57:26.579Z,85.93
2019-05-01T00:58:26.662Z,84.91
2019-05-01T00:59:26.683Z,84.45
2019-05-01T01:00:26.521Z,83.80
2019-05-01T01:01:26.731Z,83.95
2019-05-01T01:02:26.585Z,83.92
2019-05-01T01:03:26.494Z,84.30
2019-05-01T01:04:26.477Z,84.73
2019-05-01T01:05:26.535Z,84.61
2019-05-01T01:06:26.467Z,84.84
2019-05-01T01:07:26.742Z,84.81
2019-05-01T01:08:26.494Z,84.73
2019-05-01T01:09:26.644Z,84.74
2019-05-01T01:10:26.658Z,85.40
2019-05-01T01:11:26.569Z,84.96
2019-05-01T01:12:26.570Z,85.05
2019-05-01T01:13:26.658Z,85.29
2019-05-01T01:14:26.595Z,85.30
2019-05-01T01:15:26.742Z,85.18
2019-05-01T01:16:26.558Z,84.98
2019-05-01T01:17:26.692Z,85.41
2019-05-01T01:18:26.712Z,85.09
2019-05-01T01:19:26.477Z,85.14
2019-05-01T01:20:26.554Z,85.79
2019-05-01T01:21:26.674Z,85.53
2019-05-01T01:22:26.615Z,86.02
2019-05-01T01:23:26.520Z,86.01
2019-05-01T01:24:26.605Z,85.64
2019-05-01T01:25:26.576Z,85.43
2019-05-01T01:26:26.619Z,85.36
2019-05-01T01:27:26.984Z,85.25
2019-05-01T01:28:26.713Z,85.20
2019-05-01T01:29:26.659Z,84.86
2019-05-01T01:30:26.632Z,84.45
2019-05-01T01:31:26.653Z,84.50
2019-05-01T01:32:26.616Z,84.37
2019-05-01T01:33:26.755Z,83.94
2019-05-01T01:34:26.605Z,84.06
2019-05-01T01:35:26.520Z,83.52
2019-05-01T01:36:26.662Z,83.59
2019-05-01T01:37:26.829Z,83.83
2019-05-01T01:38:26.693Z,84.15
2019-05-01T01:39:27.721Z,84.26
2019-05-01T01:40:26.856Z,84.73
2019-05-01T01:41:26.601Z,84.76
2019-05-01T01:42:26.673Z,85.29
2019-05-01T01:43:26.585Z,85.41
2019-05-01T01:44:26.560Z,86.14
2019-05-01T01:45:26.663Z,85.58
2019-05-01T01:46:26.711Z,86.18
2019-05-01T01:47:26.807Z,86.13
2019-05-01T01:48:26.523Z,86.79
2019-05-01T01:49:26.511Z,86.61
2019-05-01T01:50:26.532Z,86.56
2019-05-01T01:51:26.825Z,86.89
2019-05-01T01:52:26.562Z,86.70
2019-05-01T01:53:26.726Z,87.12
2019-05-01T01:54:26.726Z,87.40
2019-05-01T01:55:26.665Z,86.80
2019-05-01T01:56:26.727Z,87.49
2019-05-01T01:57:26.675Z,87.46
2019-05-01T01:58:26.727Z,87.50
2019-05-01T01:59:26.606Z,87.56
2019-05-01T02:00:26.695Z,87.28
2019-05-01T02:01:26.688Z,87.27
2019-05-01T02:02:26.814Z,87.22
2019-05-01T02:03:26.643Z,86.64
2019-05-01T02:04:26.659Z,87.16
2019-05-01T02:05:26.732Z,86.87
2019-05-01T02:06:26.707Z,86.81
2019-05-01T02:07:26.689Z,87.01
2019-05-01T02:08:26.687Z,86.93
2019-05-01T02:09:26.681Z,87.01
2019-05-01T02:10:26.879Z,86.69
2019-05-01T02:11:26.659Z,86.92
2019-05-01T02:12:26.715Z,87.08
2019-05-01T02:13:26.934Z,87.76
2019-05-01T02:14:26.771Z,87.94
2019-05-01T02:15:26.742Z,87.74
2019-05-01T02:16:26.882Z,88.44
2019-05-01T02:17:26.787Z,88.32
2019-05-01T02:18:26.784Z,88.15
2019-05-01T02:19:28.015Z,87.81
2019-05-01T02:20:26.906Z,87.90
2019-05-01T02:21:26.866Z,88.08
2019-05-01T02:22:26.984Z,88.98
2019-05-01T02:23:27.015Z,89.17
2019-05-01T02:24:27.047Z,89.51
2019-05-01T02:25:27.025Z,89.20
2019-05-01T02:26:26.838Z,88.68
2019-05-01T02:27:27.020Z,88.70
2019-05-01T02:28:26.879Z,88.88
2019-05-01T02:29:27.075Z,89.50
2019-05-01T02:30:26.981Z,88.88
2019-05-01T02:31:29.344Z,88.47
2019-05-01T02:32:26.963Z,89.01
2019-05-01T02:33:27.003Z,88.90
2019-05-01T02:34:26.982Z,88.48
2019-05-01T02:35:30.367Z,88.32
2019-05-01T02:36:27.031Z,89.06
2019-05-01T02:37:27.089Z,88.29
2019-05-01T02:38:27.158Z,88.37
2019-05-01T02:39:27.097Z,89.13
2019-05-01T02:40:27.031Z,88.46
2019-05-01T02:41:28.199Z,88.98
2019-05-01T02:42:28.089Z,88.90
2019-05-01T02:43:27.108Z,89.08
2019-05-01T02:44:27.054Z,88.90
2019-05-01T02:45:26.957Z,88.41
2019-05-01T02:46:27.313Z,88.02
2019-05-01T02:47:27.085Z,87.10
2019-05-01T02:48:27.099Z,87.40
2019-05-01T02:49:27.134Z,87.14
2019-05-01T02:50:27.048Z,86.87
2019-05-01T02:51:27.159Z,86.67
2019-05-01T02:52:27.079Z,87.12
2019-05-01T02:53:27.077Z,87.81
2019-05-01T02:54:27.159Z,88.00
2019-05-01T02:55:27.049Z,87.39
2019-05-01T02:56:26.960Z,88.22
2019-05-01T02:57:27.215Z,87.69
2019-05-01T02:58:27.235Z,87.49
2019-05-01T02:59:27.073Z,87.77
2019-05-01T03:00:27.110Z,87.85
2019-05-01T03:01:37.178Z,88.67
2019-05-01T03:02:27.196Z,89.02
2019-05-01T03:03:27.044Z,89.26
2019-05-01T03:04:27.200Z,88.95
2019-05-01T03:05:27.268Z,89.48
2019-05-01T03:06:27.035Z,89.36
2019-05-01T03:07:27.185Z,88.85
2019-05-01T03:08:27.279Z,89.02
2019-05-01T03:09:27.068Z,89.03
2019-05-01T03:10:27.028Z,89.10
2019-05-01T03:11:27.092Z,88.49
2019-05-01T03:12:27.100Z,88.94
2019-05-01T03:13:27.127Z,89.30
2019-05-01T03:14:27.171Z,89.04
2019-05-01T03:15:27.229Z,89.32
2019-05-01T03:16:27.331Z,88.91
2019-05-01T03:17:27.209Z,88.16
2019-05-01T03:18:27.241Z,87.98
2019-05-01T03:19:27.334Z,87.89
2019-05-01T03:20:27.182Z,87.58
2019-05-01T03:21:27.126Z,87.75
2019-05-01T03:22:27.054Z,87.98
2019-05-01T03:23:27.066Z,87.87
2019-05-01T03:24:27.092Z,87.55
2019-05-01T03:25:27.145Z,88.32
2019-05-01T03:26:27.119Z,87.94
2019-05-01T03:27:27.184Z,87.90
2019-05-01T03:28:27.134Z,88.42
2019-05-01T03:29:27.148Z,88.38
2019-05-01T03:30:27.175Z,88.37
2019-05-01T03:31:27.266Z,88.02
2019-05-01T03:32:27.582Z,88.40
2019-05-01T03:33:27.191Z,88.49
2019-05-01T03:34:27.177Z,88.62
2019-05-01T03:35:27.153Z,89.01
2019-05-01T03:36:27.080Z,88.50
2019-05-01T03:37:27.191Z,88.40
2019-05-01T03:38:27.149Z,88.73
2019-05-01T03:39:27.188Z,88.17
2019-05-01T03:40:27.051Z,88.17
2019-05-01T03:41:27.499Z,88.48
2019-05-01T03:42:27.143Z,88.95
2019-05-01T03:43:27.228Z,88.77
2019-05-01T03:44:27.075Z,88.87
2019-05-01T03:45:27.245Z,89.50
2019-05-01T03:46:27.125Z,88.97
2019-05-01T03:47:28.256Z,88.74
2019-05-01T03:48:27.165Z,89.05
2019-05-01T03:49:27.147Z,88.68
2019-05-01T03:50:27.254Z,88.76
2019-05-01T03:51:27.121Z,88.83
2019-05-01T03:52:27.399Z,89.27
2019-05-01T03:53:27.077Z,88.56
2019-05-01T03:54:27.189Z,89.02
2019-05-01T03:55:27.085Z,89.03
2019-05-01T03:56:27.666Z,89.37
2019-05-01T03:57:27.133Z,89.79
2019-05-01T03:58:27.142Z,89.58
2019-05-01T03:59:27.242Z,89.25
2019-05-01T04:00:27.141Z,89.94
2019-05-01T04:01:27.266Z,89.58
2019-05-01T04:02:33.453Z,89.59
2019-05-01T04:03:27.325Z,90.19
2019-05-01T04:04:27.200Z,90.11
2019-05-01T04:05:27.180Z,89.91
2019-05-01T04:06:27.226Z,90.42
2019-05-01T04:07:28.218Z,90.08
2019-05-01T04:08:27.144Z,90.00
2019-05-01T04:09:27.134Z,89.76
2019-05-01T04:10:27.132Z,90.29
2019-05-01T04:11:27.087Z,90.83
2019-05-01T04:12:27.246Z,91.45
2019-05-01T04:13:27.270Z,91.76
2019-05-01T04:14:27.332Z,91.27
2019-05-01T04:15:27.200Z,92.03
2019-05-01T04:16:27.201Z,91.72
2019-05-01T04:17:27.167Z,91.84
2019-05-01T04:18:27.295Z,91.95
2019-05-01T04:19:28.276Z,91.68
2019-05-01T04:20:27.253Z,92.14
2019-05-01T04:21:27.190Z,91.98
2019-05-01T04:22:27.206Z,91.95
2019-05-01T04:23:27.263Z,91.84
2019-05-01T04:24:27.082Z,91.80
2019-05-01T04:25:27.296Z,92.22
2019-05-01T04:26:27.099Z,92.19
2019-05-01T04:27:27.126Z,91.91
2019-05-01T04:28:27.183Z,92.24
2019-05-01T04:29:27.206Z,92.27
2019-05-01T04:30:27.157Z,92.39
2019-05-01T04:31:27.395Z,91.82
2019-05-01T04:32:27.223Z,91.94
2019-05-01T04:33:27.216Z,91.77
2019-05-01T04:34:27.193Z,91.89
2019-05-01T04:35:27.298Z,92.03
2019-05-01T04:36:27.302Z,91.99
2019-05-01T04:37:27.348Z,91.82
2019-05-01T04:38:27.214Z,92.04
2019-05-01T04:39:27.255Z,91.58
2019-05-01T04:40:27.329Z,91.40
2019-05-01T04:41:27.138Z,92.17
2019-05-01T04:42:27.304Z,91.53
2019-05-01T04:43:27.376Z,92.24
2019-05-01T04:44:27.288Z,91.52
2019-05-01T04:45:27.230Z,92.18
2019-05-01T04:46:27.322Z,92.27
2019-05-01T04:47:27.635Z,92.31
2019-05-01T04:48:27.484Z,92.29
2019-05-01T04:49:27.523Z,92.63
2019-05-01T04:50:27.437Z,92.50
2019-05-01T04:51:27.438Z,92.88
2019-05-01T04:52:27.402Z,93.21
2019-05-01T04:53:27.533Z,93.28
2019-05-01T04:54:27.430Z,93.52
2019-05-01T04:55:27.508Z,92.70
2019-05-01T04:56:27.471Z,93.46
2019-05-01T04:57:27.547Z,94.01
2019-05-01T04:58:27.607Z,93.85
2019-05-01T04:59:27.504Z,93.64
2019-05-01T05:00:27.448Z,93.50
2019-05-01T05:01:27.493Z,93.50
2019-05-01T05:02:27.529Z,93.38
2019-05-01T05:03:27.565Z,93.49
2019-05-01T05:04:27.630Z,93.78
2019-05-01T05:05:27.637Z,94.29
2019-05-01T05:06:27.526Z,93.97
2019-05-01T05:07:27.648Z,94.23
2019-05-01T05:08:27.571Z,93.76
2019-05-01T05:09:27.742Z,93.83
2019-05-01T05:10:27.685Z,94.35
2019-05-01T05:11:27.752Z,94.04
2019-05-01T05:12:27.749Z,94.04
2019-05-01T05:13:27.705Z,93.97
2019-05-01T05:14:27.663Z,94.61
2019-05-01T05:15:27.711Z,94.67
2019-05-01T05:16:28.009Z,94.47
2019-05-01T05:17:27.815Z,93.91
2019-05-01T05:18:28.083Z,94.40
2019-05-01T05:19:27.778Z,93.92
2019-05-01T05:20:27.922Z,94.08
2019-05-01T05:21:27.805Z,94.40
2019-05-01T05:22:27.778Z,93.81
2019-05-01T05:23:27.729Z,94.27
2019-05-01T05:24:27.744Z,93.79
2019-05-01T05:25:27.834Z,93.68
2019-05-01T05:26:27.820Z,93.65
2019-05-01T05:27:27.728Z,94.09
2019-05-01T05:28:27.910Z,93.60
2019-05-01T05:29:27.841Z,94.13
2019-05-01T05:30:27.795Z,93.72
2019-05-01T05:31:28.068Z,93.15
2019-05-01T05:32:27.811Z,93.08
2019-05-01T05:33:27.795Z,93.11
2019-05-01T05:34:28.156Z,92.35
2019-05-01T05:35:27.906Z,92.07
2019-05-01T05:36:28.099Z,91.87
2019-05-01T05:37:28.028Z,92.61
2019-05-01T05:38:28.021Z,92.85
2019-05-01T05:39:27.959Z,92.57
2019-05-01T05:40:28.015Z,92.36
2019-05-01T05:41:28.103Z,92.56
2019-05-01T05:42:28.096Z,92.32
2019-05-01T05:43:28.064Z,91.55
2019-05-01T05:44:28.095Z,91.94
2019-05-01T05:45:28.099Z,91.26
2019-05-01T05:46:27.985Z,91.54
2019-05-01T05:47:28.035Z,91.49
2019-05-01T05:48:28.197Z,90.58
2019-05-01T05:49:28.019Z,90.07
2019-05-01T05:50:28.004Z,90.72
2019-05-01T05:51:28.074Z,89.89
2019-05-01T05:52:28.037Z,90.63
2019-05-01T05:53:28.457Z,90.52
2019-05-01T05:54:28.105Z,90.18
2019-05-01T05:55:28.163Z,90.60
2019-05-01T05:56:28.065Z,90.72
2019-05-01T05:57:29.925Z,91.10
2019-05-01T05:58:28.288Z,91.70
2019-05-01T05:59:28.160Z,91.96
2019-05-01T06:00:28.143Z,91.71
2019-05-01T06:01:28.111Z,91.69
2019-05-01T06:02:28.207Z,91.16
2019-05-01T06:03:31.617Z,91.13
2019-05-01T06:04:28.273Z,91.44
2019-05-01T06:05:28.212Z,91.82
2019-05-01T06:06:28.161Z,91.19
2019-05-01T06:07:28.130Z,91.51
2019-05-01T06:08:28.091Z,90.99
2019-05-01T06:09:28.195Z,90.93
2019-05-01T06:10:28.202Z,90.82
2019-05-01T06:11:29.761Z,90.50
2019-05-01T06:12:28.205Z,90.07
2019-05-01T06:13:28.179Z,90.33
2019-05-01T06:14:31.411Z,89.18
2019-05-01T06:15:28.335Z,89.80
2019-05-01T06:16:29.255Z,90.28
2019-05-01T06:17:28.748Z,90.32
2019-05-01T06:18:28.279Z,89.20
2019-05-01T06:19:28.132Z,88.06
2019-05-01T06:20:28.158Z,88.22
2019-05-01T06:21:28.117Z,88.03
2019-05-01T06:22:28.153Z,88.23
2019-05-01T06:23:29.176Z,87.71
2019-05-01T06:24:28.198Z,88.80
2019-05-01T06:25:28.296Z,88.44
2019-05-01T06:26:31.938Z,88.37
2019-05-01T06:27:28.374Z,87.20
2019-05-01T06:28:29.735Z,87.99
2019-05-01T06:29:30.918Z,87.68
2019-05-01T06:30:28.152Z,88.29
2019-05-01T06:31:28.184Z,87.09
2019-05-01T06:32:28.831Z,87.24
2019-05-01T06:33:28.196Z,86.12
2019-05-01T06:34:28.668Z,85.40
2019-05-01T06:35:28.208Z,85.60
2019-05-01T06:36:28.215Z,85.95
2019-05-01T06:37:28.207Z,84.75
2019-05-01T06:38:31.474Z,85.08
2019-05-01T06:39:28.243Z,85.28
2019-05-01T06:40:28.087Z,87.27
2019-05-01T06:41:28.715Z,87.61
2019-05-01T06:42:28.253Z,88.08
2019-05-01T06:43:28.219Z,88.20
2019-05-01T06:44:28.186Z,89.04
2019-05-01T06:45:28.213Z,88.85
2019-05-01T06:46:29.113Z,88.99
2019-05-01T06:47:29.235Z,88.42
2019-05-01T06:48:28.279Z,87.61
2019-05-01T06:49:29.322Z,86.08
2019-05-01T06:50:28.252Z,84.84
2019-05-01T06:51:28.172Z,84.61
2019-05-01T06:52:29.304Z,84.46
2019-05-01T06:53:28.085Z,84.90
2019-05-01T06:54:28.264Z,86.52
2019-05-01T06:55:28.953Z,86.25
2019-05-01T06:56:28.229Z,86.46
2019-05-01T06:57:28.193Z,86.16
2019-05-01T06:58:28.264Z,86.79
2019-05-01T06:59:31.562Z,86.88
2019-05-01T07:00:28.197Z,87.10
2019-05-01T07:01:28.208Z,86.82
2019-05-01T07:02:29.933Z,85.69
2019-05-01T07:03:28.200Z,84.80
2019-05-01T07:04:32.422Z,84.87
2019-05-01T07:05:28.109Z,85.79
2019-05-01T07:06:31.036Z,85.77
2019-05-01T07:07:28.277Z,85.48
2019-05-01T07:08:29.592Z,86.07
2019-05-01T07:09:28.424Z,85.84
2019-05-01T07:10:30.890Z,85.97
2019-05-01T07:11:28.190Z,85.71
2019-05-01T07:12:29.808Z,84.92
2019-05-01T07:13:28.186Z,83.62
2019-05-01T07:14:28.185Z,83.15
2019-05-01T07:15:28.447Z,84.21
2019-05-01T07:16:28.250Z,85.40
2019-05-01T07:17:28.251Z,85.34
2019-05-01T07:18:29.221Z,84.12
2019-05-01T07:19:28.212Z,83.52
2019-05-01T07:20:28.295Z,83.32
2019-05-01T07:21:32.412Z,81.48
2019-05-01T07:22:28.156Z,80.09
2019-05-01T07:23:28.288Z,79.67
2019-05-01T07:24:29.090Z,80.22
2019-05-01T07:25:28.126Z,80.13
2019-05-01T07:26:28.242Z,78.82
2019-05-01T07:27:28.296Z,78.92
2019-05-01T07:28:32.359Z,79.91
2019-05-01T07:29:28.148Z,82.14
2019-05-01T07:30:28.223Z,83.17
2019-05-01T07:31:30.907Z,82.54
2019-05-01T07:32:28.404Z,82.79
2019-05-01T07:33:28.263Z,79.85
2019-05-01T07:34:28.285Z,77.62
2019-05-01T07:35:32.965Z,76.45
2019-05-01T07:36:28.288Z,75.36
2019-05-01T07:37:28.151Z,75.22
2019-05-01T07:38:28.303Z,74.83
2019-05-01T07:39:28.279Z,74.26
2019-05-01T07:40:30.101Z,74.06
2019-05-01T07:41:28.253Z,74.06
2019-05-01T07:42:28.182Z,74.02
2019-05-01T07:43:28.470Z,76.69
2019-05-01T07:44:30.070Z,80.26
2019-05-01T07:45:28.331Z,82.44
2019-05-01T07:46:28.116Z,82.42
2019-05-01T07:47:30.536Z,81.41
2019-05-01T07:48:28.105Z,81.40
2019-05-01T07:49:28.238Z,81.60
2019-05-01T07:50:31.576Z,80.77
2019-05-01T07:51:28.294Z,80.11
2019-05-01T07:52:28.321Z,79.43
2019-05-01T07:53:28.495Z,79.98
2019-05-01T07:54:28.475Z,81.20
2019-05-01T07:55:28.292Z,81.41
2019-05-01T07:56:29.971Z,81.40
2019-05-01T07:57:28.228Z,81.91
2019-05-01T07:58:28.223Z,81.96
2019-05-01T07:59:28.742Z,81.18
2019-05-01T08:00:28.381Z,81.31
2019-05-01T08:01:28.233Z,80.99
2019-05-01T08:02:31.162Z,81.56
2019-05-01T08:03:28.264Z,82.31
2019-05-01T08:05:28.457Z,80.63
2019-05-01T08:06:28.963Z,79.90
2019-05-01T08:07:32.418Z,80.29
2019-05-01T08:08:28.287Z,81.08
2019-05-01T08:09:28.330Z,80.82
2019-05-01T08:10:31.445Z,80.35
2019-05-01T08:11:28.664Z,81.08
2019-05-01T08:12:28.299Z,79.37
2019-05-01T08:13:30.708Z,77.71
2019-05-01T08:14:28.274Z,79.15
2019-05-01T08:15:32.380Z,80.70
2019-05-01T08:16:28.506Z,80.11
2019-05-01T08:17:28.511Z,79.22
2019-05-01T08:18:29.282Z,77.39
2019-05-01T08:19:28.168Z,78.77
2019-05-01T08:20:28.287Z,79.43
2019-05-01T08:21:28.332Z,78.08
2019-05-01T08:22:32.048Z,79.83
2019-05-01T08:23:28.285Z,78.08
2019-05-01T08:24:28.330Z,79.88
2019-05-01T08:25:28.677Z,79.00
2019-05-01T08:26:28.317Z,79.36
2019-05-01T08:27:28.455Z,79.63
2019-05-01T08:28:32.054Z,79.37
2019-05-01T08:29:28.305Z,79.18
2019-05-01T08:30:28.225Z,78.57
2019-05-01T08:31:29.109Z,79.49
2019-05-01T08:32:28.389Z,79.67
2019-05-01T08:33:28.436Z,79.79
2019-05-01T08:34:29.804Z,79.30
2019-05-01T08:35:31.857Z,78.76
2019-05-01T08:36:28.442Z,76.62
2019-05-01T08:37:28.339Z,74.11
2019-05-01T08:38:29.888Z,73.40
2019-05-01T08:39:28.337Z,73.02
2019-05-01T08:40:28.417Z,74.28
2019-05-01T08:41:31.841Z,75.32
2019-05-01T08:42:28.499Z,74.96
2019-05-01T08:43:28.247Z,75.48
2019-05-01T08:44:29.631Z,74.61
2019-05-01T08:45:28.880Z,74.97
2019-05-01T08:46:28.414Z,74.12
2019-05-01T08:47:28.286Z,75.00
2019-05-01T08:48:30.774Z,74.27
2019-05-01T08:49:28.507Z,72.75
2019-05-01T08:50:28.395Z,70.20
2019-05-01T08:51:30.161Z,67.70
2019-05-01T08:52:28.351Z,66.82
2019-05-01T08:53:28.411Z,67.79
2019-05-01T08:54:28.815Z,68.93
2019-05-01T08:55:28.408Z,70.43
2019-05-01T08:56:28.308Z,70.40
2019-05-01T08:57:29.022Z,69.05
2019-05-01T08:58:28.277Z,66.63
2019-05-01T08:59:28.389Z,65.19
2019-05-01T09:00:30.982Z,63.56
2019-05-01T09:01:28.339Z,62.26
2019-05-01T09:02:28.600Z,65.35
2019-05-01T09:03:28.311Z,67.23
2019-05-01T09:04:30.593Z,69.23
2019-05-01T09:05:31.281Z,67.53
2019-05-01T09:06:34.848Z,67.18
2019-05-01T09:07:28.428Z,63.55
2019-05-01T09:08:31.956Z,64.58
2019-05-01T09:09:28.351Z,63.70
2019-05-01T09:10:28.370Z,62.07
2019-05-01T09:11:31.846Z,60.17
2019-05-01T09:12:28.350Z,61.62
2019-05-01T09:13:28.242Z,62.30
2019-05-01T09:14:29.724Z,60.31
2019-05-01T09:15:28.393Z,59.15
2019-05-01T09:16:30.102Z,57.84
2019-05-01T09:17:28.401Z,61.23
2019-05-01T09:18:28.457Z,63.75
2019-05-01T09:19:28.377Z,62.87
2019-05-01T09:20:32.085Z,62.15
2019-05-01T09:21:28.400Z,62.09
2019-05-01T09:22:28.581Z,63.86
2019-05-01T09:23:28.335Z,65.38
2019-05-01T09:24:29.409Z,64.11
2019-05-01T09:25:30.985Z,63.12
2019-05-01T09:26:28.627Z,62.56
2019-05-01T09:27:29.279Z,63.23
2019-05-01T09:28:28.401Z,61.58
2019-05-01T09:29:28.924Z,64.26
2019-05-01T09:30:28.821Z,64.52
2019-05-01T09:31:28.394Z,65.35
2019-05-01T09:32:28.351Z,63.09
2019-05-01T09:33:30.883Z,64.14
2019-05-01T09:34:28.373Z,63.86
2019-05-01T09:35:28.307Z,62.38
2019-05-01T09:36:28.388Z,62.43
2019-05-01T09:37:28.384Z,62.28
2019-05-01T09:38:28.365Z,61.55
2019-05-01T09:39:28.415Z,60.90
2019-05-01T09:40:28.417Z,58.64
2019-05-01T09:41:38.097Z,55.17
2019-05-01T09:42:28.431Z,55.20
2019-05-01T09:43:30.898Z,55.90
2019-05-01T09:44:28.541Z,57.73
2019-05-01T09:45:28.419Z,58.88
2019-05-01T09:46:28.469Z,59.11
2019-05-01T09:47:28.311Z,60.89
2019-05-01T09:48:28.312Z,59.73
2019-05-01T09:49:28.477Z,57.51
2019-05-01T09:50:30.436Z,55.51
2019-05-01T09:51:28.394Z,53.74
2019-05-01T09:52:28.429Z,52.66
2019-05-01T09:53:29.764Z,51.68
2019-05-01T09:54:28.421Z,51.23
2019-05-01T09:55:28.588Z,51.50
2019-05-01T09:56:28.370Z,50.40
2019-05-01T09:57:28.478Z,52.11
2019-05-01T09:58:28.462Z,56.43
2019-05-01T09:59:28.389Z,57.14
2019-05-01T10:00:28.419Z,55.37
2019-05-01T10:01:32.045Z,53.46
2019-05-01T10:02:28.410Z,53.56
2019-05-01T10:03:28.317Z,50.59
2019-05-01T10:04:30.226Z,49.12
2019-05-01T10:05:29.263Z,48.75
2019-05-01T10:06:28.836Z,50.45
2019-05-01T10:07:29.105Z,50.74
2019-05-01T10:08:28.399Z,50.93
2019-05-01T10:09:28.388Z,49.78
2019-05-01T10:10:29.373Z,48.53
2019-05-01T10:11:28.408Z,48.24
2019-05-01T10:12:28.481Z,49.21
2019-05-01T10:13:28.383Z,48.28
2019-05-01T10:14:31.630Z,50.21
2019-05-01T10:15:28.432Z,47.95
2019-05-01T10:16:28.496Z,48.28
2019-05-01T10:17:28.460Z,47.11
2019-05-01T10:18:28.621Z,45.56
2019-05-01T10:19:28.412Z,44.54
2019-05-01T10:20:28.798Z,43.58
2019-05-01T10:21:28.905Z,47.45
2019-05-01T10:22:28.444Z,49.33
2019-05-01T10:23:28.397Z,48.57
2019-05-01T10:24:31.941Z,48.11
2019-05-01T10:25:28.457Z,48.15
2019-05-01T10:26:28.470Z,48.44
2019-05-01T10:27:30.859Z,48.08
2019-05-01T10:28:28.560Z,47.64
2019-05-01T10:29:28.456Z,46.38
2019-05-01T10:30:31.729Z,45.41
2019-05-01T10:31:28.516Z,45.06
2019-05-01T10:32:28.439Z,44.42
2019-05-01T10:33:29.079Z,45.09
2019-05-01T10:34:28.622Z,47.10
2019-05-01T10:35:41.558Z,46.87
2019-05-01T10:36:28.501Z,47.40
2019-05-01T10:37:33.155Z,45.99
2019-05-01T10:38:28.414Z,44.60
2019-05-01T10:39:30.196Z,44.50
2019-05-01T10:40:32.241Z,44.83
2019-05-01T10:41:28.584Z,45.07
2019-05-01T10:42:28.481Z,44.78
2019-05-01T10:43:28.484Z,44.48
2019-05-01T10:44:28.486Z,45.74
2019-05-01T10:45:28.469Z,44.04
2019-05-01T10:46:28.467Z,41.39
2019-05-01T10:47:28.536Z,41.89
2019-05-01T10:48:28.487Z,42.80
2019-05-01T10:49:28.550Z,42.78
2019-05-01T10:50:28.648Z,43.77
2019-05-01T10:51:28.497Z,43.31
2019-05-01T10:52:28.428Z,43.09
2019-05-01T10:53:28.461Z,39.37
2019-05-01T10:54:28.469Z,39.12
2019-05-01T10:55:28.407Z,39.00
2019-05-01T10:56:28.426Z,39.07
2019-05-01T10:57:28.509Z,38.43
2019-05-01T10:58:28.648Z,38.98
2019-05-01T10:59:28.455Z,39.17
2019-05-01T11:00:28.447Z,37.35
2019-05-01T11:01:28.750Z,37.97
2019-05-01T11:02:28.401Z,37.38
2019-05-01T11:03:28.485Z,37.55
2019-05-01T11:04:28.491Z,37.79
2019-05-01T11:05:28.534Z,37.65
2019-05-01T11:06:28.528Z,36.90
2019-05-01T11:07:29.063Z,36.43
2019-05-01T11:08:31.075Z,37.28
2019-05-01T11:09:28.612Z,37.20
2019-05-01T11:10:28.611Z,38.56
2019-05-01T11:11:28.541Z,37.86
2019-05-01T11:12:28.676Z,37.39
2019-05-01T11:13:28.505Z,37.83
2019-05-01T11:14:28.512Z,38.04
2019-05-01T11:15:28.519Z,37.83
2019-05-01T11:16:28.630Z,38.71
2019-05-01T11:17:28.400Z,40.51
2019-05-01T11:18:28.764Z,42.64
2019-05-01T11:19:29.734Z,43.29
2019-05-01T11:20:28.581Z,43.23
2019-05-01T11:21:28.502Z,43.09
2019-05-01T11:22:28.575Z,42.04
2019-05-01T11:23:28.714Z,42.96
2019-05-01T11:24:28.743Z,43.10
2019-05-01T11:25:28.622Z,44.16
2019-05-01T11:26:28.539Z,43.11
2019-05-01T11:27:28.546Z,42.67
2019-05-01T11:28:28.523Z,41.98
2019-05-01T11:29:28.545Z,42.48
2019-05-01T11:30:28.458Z,41.80
2019-05-01T11:31:28.584Z,41.65
2019-05-01T11:32:28.500Z,41.06
2019-05-01T11:33:28.537Z,40.93
2019-05-01T11:34:28.719Z,38.31
2019-05-01T11:35:28.908Z,37.64
2019-05-01T11:36:28.641Z,36.78
2019-05-01T11:37:28.599Z,37.00
2019-05-01T11:38:28.611Z,37.67
2019-05-01T11:39:28.523Z,40.38
2019-05-01T11:40:28.483Z,41.27
2019-05-01T11:41:28.668Z,40.84
2019-05-01T11:42:28.924Z,41.17
2019-05-01T11:43:28.558Z,40.97
2019-05-01T11:44:28.677Z,40.65
2019-05-01T11:45:28.641Z,39.57
2019-05-01T11:46:28.648Z,40.25
2019-05-01T11:47:28.520Z,37.90
2019-05-01T11:48:30.236Z,36.08
2019-05-01T11:49:28.526Z,35.79
2019-05-01T11:50:28.616Z,35.89
2019-05-01T11:51:28.513Z,35.79
2019-05-01T11:52:28.756Z,35.03
2019-05-01T11:53:28.489Z,35.50
2019-05-01T11:54:28.608Z,35.62
2019-05-01T11:55:28.619Z,34.88
2019-05-01T11:56:28.660Z,33.88
2019-05-01T11:57:28.622Z,32.78
2019-05-01T11:58:28.537Z,31.97
2019-05-01T11:59:28.611Z,31.24
2019-05-01T12:00:28.610Z,31.41
2019-05-01T12:01:28.670Z,31.69
2019-05-01T12:02:28.710Z,32.29
2019-05-01T12:03:28.610Z,33.33
2019-05-01T12:04:28.496Z,31.10
2019-05-01T12:05:28.617Z,31.08
2019-05-01T12:06:28.635Z,31.29
2019-05-01T12:07:28.786Z,31.25
2019-05-01T12:08:28.585Z,31.57
2019-05-01T12:09:28.625Z,31.40
2019-05-01T12:10:28.545Z,33.05
2019-05-01T12:11:28.744Z,33.93
2019-05-01T12:12:28.586Z,34.58
2019-05-01T12:13:28.614Z,32.49
2019-05-01T12:14:28.544Z,34.25
2019-05-01T12:15:28.716Z,32.76
2019-05-01T12:16:28.758Z,31.87
2019-05-01T12:17:28.607Z,33.00
2019-05-01T12:18:28.812Z,33.70
2019-05-01T12:19:28.532Z,35.29
2019-05-01T12:20:28.616Z,35.31
2019-05-01T12:21:28.561Z,35.28
2019-05-01T12:22:29.430Z,35.03
2019-05-01T12:23:28.681Z,34.18
2019-05-01T12:24:28.892Z,33.11
2019-05-01T12:25:28.663Z,31.83
2019-05-01T12:26:28.622Z,31.33
2019-05-01T12:27:28.586Z,30.25
2019-05-01T12:28:28.722Z,30.16
2019-05-01T12:29:28.843Z,29.81
2019-05-01T12:30:28.490Z,30.13
2019-05-01T12:31:31.301Z,30.38
2019-05-01T12:32:28.748Z,32.43
2019-05-01T12:33:28.821Z,33.65
2019-05-01T12:34:28.608Z,33.79
2019-05-01T12:35:28.615Z,31.87
2019-05-01T12:36:36.136Z,31.76
2019-05-01T12:37:28.677Z,33.78
2019-05-01T12:38:28.686Z,31.16
2019-05-01T12:39:28.639Z,30.62
2019-05-01T12:40:28.640Z,30.48
2019-05-01T12:41:28.690Z,30.81
2019-05-01T12:42:28.683Z,30.78
2019-05-01T12:43:28.608Z,30.09
2019-05-01T12:44:28.627Z,29.73
2019-05-01T12:45:28.662Z,29.71
2019-05-01T12:46:28.728Z,29.65
2019-05-01T12:47:28.601Z,28.64
2019-05-01T12:48:28.758Z,30.79
2019-05-01T12:49:28.613Z,28.51
2019-05-01T12:50:28.638Z,28.13
2019-05-01T12:51:28.836Z,30.25
2019-05-01T12:52:28.670Z,30.60
2019-05-01T12:53:28.683Z,29.79